createdAt,value
2022-09-12T00:02:22.032Z,100251.41
2022-09-12T00:05:26.179Z,100242.78
2022-09-12T00:08:28.751Z,100238.06
2022-09-12T00:11:31.655Z,100240.81
2022-09-12T00:14:34.592Z,100226.28
2022-09-12T00:17:38.971Z,100238.88
2022-09-12T00:20:47.065Z,100242.44
2022-09-12T00:23:50.692Z,100233.00
2022-09-12T00:26:53.320Z,100237.34
2022-09-12T00:29:56.283Z,100237.34
2022-09-12T00:32:58.881Z,100225.16
2022-09-12T00:36:09.613Z,100236.56
2022-09-12T00:39:16.859Z,100230.66
2022-09-12T00:42:19.803Z,100236.19
2022-09-12T00:45:29.314Z,100242.88
2022-09-12T00:48:39.210Z,100238.56
2022-09-12T00:51:48.097Z,100248.03
2022-09-12T00:55:20.163Z,100243.69
2022-09-12T00:58:29.698Z,100236.63
2022-09-12T01:01:33.046Z,100231.88
2022-09-12T01:04:38.860Z,100239.41
2022-09-12T01:07:42.900Z,100222.84
2022-09-12T01:10:45.851Z,100232.28
2022-09-12T01:13:49.933Z,100249.25
2022-09-12T01:16:52.799Z,100247.66
2022-09-12T01:20:33.182Z,100237.81
2022-09-12T01:23:41.440Z,100224.06
2022-09-12T01:26:56.253Z,100228.75
2022-09-12T01:30:08.094Z,100235.06
2022-09-12T01:33:36.127Z,100228.38
2022-09-12T01:36:52.882Z,100236.63
2022-09-12T01:40:03.233Z,100233.50
2022-09-12T01:43:25.189Z,100228.00
2022-09-12T01:46:33.927Z,100239.00
2022-09-12T01:50:00.422Z,100220.09
2022-09-12T01:53:18.376Z,100235.09
2022-09-12T01:56:34.356Z,100239.44
2022-09-12T01:59:44.407Z,100231.16
2022-09-12T02:02:58.037Z,100233.13
2022-09-12T02:06:18.992Z,100236.25
2022-09-12T02:09:45.447Z,100219.75
2022-09-12T02:12:52.731Z,100235.47
2022-09-12T02:16:06.085Z,100243.38
2022-09-12T02:19:15.089Z,100244.56
2022-09-12T02:22:21.695Z,100235.91
2022-09-12T02:25:27.621Z,100239.03
2022-09-12T02:28:38.362Z,100232.34
2022-09-12T02:31:47.283Z,100237.09
2022-09-12T02:35:08.792Z,100243.78
2022-09-12T02:38:20.280Z,100236.69
2022-09-12T02:41:23.460Z,100226.47
2022-09-12T02:44:28.692Z,100230.78
2022-09-12T02:47:37.772Z,100233.16
2022-09-12T02:50:42.107Z,100230.41
2022-09-12T02:53:44.794Z,100225.28
2022-09-12T02:56:47.719Z,100225.66
2022-09-12T02:59:57.856Z,100230.78
2022-09-12T03:03:42.673Z,100227.66
2022-09-12T03:06:57.970Z,100226.47
2022-09-12T03:10:10.023Z,100221.75
2022-09-12T03:13:30.528Z,100227.25
2022-09-12T03:17:04.144Z,100231.16
2022-09-12T03:20:22.937Z,100230.41
2022-09-12T03:23:28.755Z,100240.63
2022-09-12T03:26:42.602Z,100237.47
2022-09-12T03:29:48.225Z,100242.19
2022-09-12T03:32:53.361Z,100246.91
2022-09-12T03:35:56.701Z,100242.97
2022-09-12T03:38:59.444Z,100242.97
2022-09-12T03:42:02.251Z,100238.25
2022-09-12T03:45:06.674Z,100247.69
2022-09-12T03:48:10.139Z,100252.81
2022-09-12T03:51:12.751Z,100252.44
2022-09-12T03:54:15.734Z,100252.81
2022-09-12T03:57:18.788Z,100264.22
2022-09-12T04:00:22.763Z,100251.63
2022-09-12T04:03:25.849Z,100274.44
2022-09-12T04:06:28.484Z,100268.53
2022-09-12T04:09:31.413Z,100269.72
2022-09-12T04:12:35.627Z,100265.78
2022-09-12T04:15:38.447Z,100270.09
2022-09-12T04:18:42.152Z,100259.50
2022-09-12T04:21:45.031Z,100273.25
2022-09-12T04:24:47.568Z,100285.47
2022-09-12T04:27:50.461Z,100289.78
2022-09-12T04:30:53.066Z,100286.25
2022-09-12T04:33:58.084Z,100292.13
2022-09-12T04:37:00.789Z,100297.66
2022-09-12T04:40:03.869Z,100294.87
2022-09-12T04:43:08.444Z,100299.22
2022-09-12T04:46:17.090Z,100285.84
2022-09-12T04:49:19.741Z,100298.06
2022-09-12T04:52:22.656Z,100306.72
2022-09-12T04:55:25.403Z,100302.38
2022-09-12T04:58:28.271Z,100309.47
2022-09-12T05:01:31.266Z,100317.72
2022-09-12T05:04:34.896Z,100319.31
2022-09-12T05:07:37.546Z,100326.00
2022-09-12T05:10:40.456Z,100322.88
2022-09-12T05:13:44.500Z,100323.25
2022-09-12T05:16:49.980Z,100327.19
2022-09-12T05:19:52.768Z,100328.00
2022-09-12T05:22:55.911Z,100325.22
2022-09-12T05:25:59.835Z,100331.87
2022-09-12T05:29:04.298Z,100343.34
2022-09-12T05:32:09.673Z,100337.41
2022-09-12T05:35:12.733Z,100350.00
2022-09-12T05:38:18.836Z,100349.19
2022-09-12T05:41:28.106Z,100349.50
2022-09-12T05:44:33.314Z,100354.25
2022-09-12T05:47:36.336Z,100352.28
2022-09-12T05:50:38.854Z,100347.12
2022-09-12T05:53:42.116Z,100357.75
2022-09-12T05:56:45.394Z,100355.78
2022-09-12T05:59:48.818Z,100355.72
2022-09-12T06:02:54.646Z,100354.88
2022-09-12T06:05:57.556Z,100349.34
2022-09-12T06:09:01.902Z,100349.03
2022-09-12T06:12:04.969Z,100361.16
2022-09-12T06:15:08.132Z,100338.66
2022-09-12T06:18:11.837Z,100346.44
2022-09-12T06:21:15.014Z,100353.16
2022-09-12T06:24:18.942Z,100357.09
2022-09-12T06:27:21.607Z,100354.78
2022-09-12T06:30:25.540Z,100349.19
2022-09-12T06:33:28.263Z,100353.91
2022-09-12T06:36:34.807Z,100347.81
2022-09-12T06:39:37.605Z,100358.25
2022-09-12T06:42:40.603Z,100359.69
2022-09-12T06:45:49.476Z,100361.22
2022-09-12T06:48:52.540Z,100365.06
2022-09-12T06:51:55.124Z,100359.50
2022-09-12T06:54:58.056Z,100365.47
2022-09-12T06:58:00.610Z,100360.22
2022-09-12T07:01:06.341Z,100352.19
2022-09-12T07:04:09.590Z,100363.66
2022-09-12T07:07:12.905Z,100364.84
2022-09-12T07:10:18.996Z,100363.78
2022-09-12T07:13:25.697Z,100360.50
2022-09-12T07:16:30.380Z,100370.28
2022-09-12T07:19:33.549Z,100366.19
2022-09-12T07:22:36.082Z,100372.97
2022-09-12T07:25:38.972Z,100377.44
2022-09-12T07:28:42.126Z,100371.41
2022-09-12T07:31:52.375Z,100379.78
2022-09-12T07:34:56.652Z,100384.00
2022-09-12T07:37:59.544Z,100375.63
2022-09-12T07:41:10.068Z,100386.72
2022-09-12T07:44:13.007Z,100390.41
2022-09-12T07:47:16.058Z,100376.78
2022-09-12T07:50:19.379Z,100392.72
2022-09-12T07:53:22.147Z,100392.66
2022-09-12T07:56:30.121Z,100389.19
2022-09-12T07:59:52.173Z,100392.59
2022-09-12T08:02:56.662Z,100419.87
2022-09-12T08:06:04.828Z,100410.13
2022-09-12T08:09:07.942Z,100398.56
2022-09-12T08:12:11.026Z,100406.06
2022-09-12T08:15:13.627Z,100403.91
2022-09-12T08:18:16.560Z,100399.75
2022-09-12T08:21:22.053Z,100399.72
2022-09-12T08:24:25.155Z,100402.81
2022-09-12T08:27:27.792Z,100389.25
2022-09-12T08:30:30.732Z,100396.72
2022-09-12T08:33:34.135Z,100396.69
2022-09-12T08:36:37.034Z,100391.53
2022-09-12T08:39:39.929Z,100387.97
2022-09-12T08:43:18.358Z,100377.72
2022-09-12T08:46:43.200Z,100386.88
2022-09-12T08:50:08.136Z,100376.19
2022-09-12T08:53:16.081Z,100386.41
2022-09-12T08:56:19.174Z,100396.00
2022-09-12T08:59:21.812Z,100396.59
2022-09-12T17:08:53.379Z,100268.03
2022-09-12T17:11:57.531Z,100256.50
2022-09-12T17:15:00.230Z,100264.88
2022-09-12T17:18:03.270Z,100257.69
2022-09-12T17:21:10.299Z,100268.56
2022-09-12T17:24:13.678Z,100272.72
2022-09-12T17:27:16.221Z,100274.84
2022-09-12T17:30:19.131Z,100268.38
2022-09-12T17:33:21.687Z,100272.00
2022-09-12T17:36:24.975Z,100272.13
2022-09-12T17:39:27.634Z,100280.56
2022-09-12T17:42:31.579Z,100296.91
2022-09-12T17:45:34.193Z,100292.28
2022-09-12T17:48:37.833Z,100289.97
2022-09-12T17:51:40.939Z,100298.75
2022-09-12T17:54:43.791Z,100296.84
2022-09-12T17:57:46.420Z,100301.91
2022-09-12T18:01:08.145Z,100298.03
2022-09-12T18:04:11.348Z,100305.22
2022-09-12T18:07:18.948Z,100300.16
2022-09-12T18:10:21.853Z,100305.00
2022-09-12T18:13:24.420Z,100301.56
2022-09-12T18:16:49.666Z,100306.34
2022-09-12T18:24:21.447Z,100316.69
2022-09-12T18:27:24.403Z,100316.75
2022-09-12T18:39:39.313Z,100316.31
2022-09-12T18:42:42.352Z,100321.41
2022-09-12T18:45:44.979Z,100321.50
2022-09-12T18:48:48.227Z,100320.41
2022-09-12T18:51:53.093Z,100319.31
2022-09-12T18:54:57.224Z,100329.56
2022-09-12T18:58:02.905Z,100322.91
2022-09-12T19:01:11.053Z,100327.31
2022-09-12T19:22:00.315Z,100320.12
2022-09-12T19:25:03.464Z,100319.31
2022-09-12T19:28:06.344Z,100322.16
2022-09-12T19:40:08.447Z,100321.81
2022-09-12T19:47:41.302Z,100328.56
2022-09-12T19:59:42.955Z,100329.00
2022-09-12T20:02:50.319Z,100329.41
2022-09-12T20:05:53.181Z,100330.22
2022-09-12T20:08:56.220Z,100325.16
2022-09-12T20:11:59.078Z,100328.69
2022-09-12T20:15:01.744Z,100331.03
2022-09-12T20:18:04.883Z,100328.69
2022-09-12T20:21:18.839Z,100323.97
2022-09-12T20:24:21.683Z,100321.22
2022-09-12T20:27:25.206Z,100313.75
2022-09-12T20:30:28.308Z,100316.56
2022-09-12T20:33:31.444Z,100328.37
2022-09-12T20:36:34.557Z,100327.97
2022-09-12T20:39:37.091Z,100323.66
2022-09-12T20:42:40.000Z,100319.31
2022-09-12T20:45:42.570Z,100313.78
2022-09-12T20:48:46.920Z,100323.59
2022-09-12T20:51:50.407Z,100323.62
2022-09-12T20:54:53.389Z,100319.69
2022-09-12T20:57:55.960Z,100316.56
2022-09-12T21:00:59.372Z,100309.47
2022-09-12T21:04:02.227Z,100314.59
2022-09-12T21:07:05.318Z,100312.63
2022-09-12T21:10:08.176Z,100298.84
2022-09-12T21:13:12.269Z,100307.50
2022-09-12T21:16:17.256Z,100320.88
2022-09-12T21:19:20.228Z,100314.59
2022-09-12T21:22:22.966Z,100321.66
2022-09-12T21:25:25.871Z,100327.22
2022-09-12T21:28:28.848Z,100318.56
2022-09-12T21:31:31.798Z,100325.22
2022-09-12T21:34:34.379Z,100324.44
2022-09-12T21:37:37.221Z,100328.78
2022-09-12T21:40:39.881Z,100325.63
2022-09-12T21:43:43.937Z,100331.13
2022-09-12T21:46:46.548Z,100318.91
2022-09-12T21:49:49.437Z,100324.03
2022-09-12T21:52:52.076Z,100321.28
2022-09-12T21:55:55.096Z,100314.97
2022-09-12T21:58:57.656Z,100315.37
2022-09-12T22:02:00.524Z,100310.63
2022-09-12T22:05:04.239Z,100315.75
2022-09-12T22:08:07.994Z,100311.81
2022-09-12T22:11:10.948Z,100316.91
2022-09-12T22:14:13.539Z,100298.00
2022-09-12T22:17:16.359Z,100309.06
2022-09-12T22:20:19.344Z,100312.19
2022-09-12T22:23:45.297Z,100313.78
2022-09-12T22:26:47.873Z,100318.09
2022-09-12T22:29:52.046Z,100311.78
2022-09-12T22:32:54.606Z,100310.19
2022-09-12T22:35:57.803Z,100307.44
2022-09-12T22:39:00.402Z,100300.34
2022-09-12T22:42:03.864Z,100310.56
2022-09-12T22:45:07.700Z,100306.22
2022-09-12T22:48:10.554Z,100293.25
2022-09-12T22:51:13.780Z,100300.31
2022-09-12T22:54:16.713Z,100299.13
2022-09-12T22:57:19.424Z,100316.41
2022-09-12T23:00:23.631Z,100312.88
2022-09-12T23:03:26.247Z,100301.50
2022-09-12T23:06:29.693Z,100317.22
2022-09-12T23:09:35.415Z,100319.53
2022-09-12T23:12:38.503Z,100316.34
2022-09-12T23:15:41.035Z,100320.16
2022-09-12T23:18:44.520Z,100326.41
2022-09-12T23:21:47.053Z,100312.25
2022-09-12T23:24:49.950Z,100319.66
2022-09-12T23:27:53.011Z,100321.94
2022-09-12T23:30:56.796Z,100321.91
2022-09-12T23:34:05.983Z,100332.19
2022-09-12T23:37:09.100Z,100327.84
2022-09-12T23:40:11.784Z,100335.72
2022-09-12T23:43:14.700Z,100322.75
2022-09-12T23:46:18.824Z,100326.28
2022-09-12T23:49:21.755Z,100319.16
2022-09-12T23:52:24.308Z,100322.25
2022-09-12T23:55:27.153Z,100313.88
2022-09-12T23:58:33.216Z,100313.91
